Time;durP1;ratioP1;P1;durP2;ratioP2;P2;SDS_P1;SDS_P2;PMS_P1;PMS_P2;Temp;Humidity;BMP_temperature;BMP_pressure;BME280_temperature;BME280_humidity;BME280_pressure;Samples;Min_cycle;Max_cycle;Signal;HPM_P1;HPM_P2
2021/03/14 00:00:34;;;;;;;25.73;14.13;;;;;;;2.86;87.32;98901.34;3523104;28;20047;-55
2021/03/14 00:02:16;;;;;;;30.63;14.43;;;;;;;2.87;87.49;98907.31;3520139;28;20139;-51
2021/03/14 00:03:57;;;;;;;28.27;14.10;;;;;;;2.86;87.72;98900.47;3522716;28;20066;-54
2021/03/14 00:05:40;;;;;;;28.95;15.00;;;;;;;2.85;87.38;98899.63;3521962;28;20051;-54
2021/03/14 00:07:22;;;;;;;27.10;15.00;;;;;;;2.85;87.42;98897.06;3519153;28;20044;-55
2021/03/14 00:09:04;;;;;;;27.08;14.43;;;;;;;2.83;87.31;98893.56;3510275;28;20044;-53
2021/03/14 00:10:49;;;;;;;26.95;13.30;;;;;;;2.82;87.72;98893.53;3516465;28;20496;-54
2021/03/14 00:12:30;;;;;;;25.77;14.77;;;;;;;2.81;87.55;98892.63;3523309;28;20047;-55
2021/03/14 00:14:11;;;;;;;28.20;14.98;;;;;;;2.80;87.50;98893.47;3519275;28;20052;-54
2021/03/14 00:15:53;;;;;;;29.40;14.93;;;;;;;2.78;87.71;98894.22;3520474;28;20044;-53
2021/03/14 00:17:34;;;;;;;25.42;14.00;;;;;;;2.74;87.82;98885.59;3521665;28;20047;-51
2021/03/14 00:19:16;;;;;;;27.27;14.50;;;;;;;2.73;87.63;98893.22;3518691;28;20044;-54
2021/03/14 00:20:58;;;;;;;32.92;14.23;;;;;;;2.69;87.90;98890.56;3523899;28;20051;-53
2021/03/14 00:22:40;;;;;;;27.00;14.77;;;;;;;2.67;87.96;98891.31;3520255;28;20047;-55
2021/03/14 00:24:21;;;;;;;25.55;12.98;;;;;;;2.65;87.62;98890.41;3522068;28;20577;-55
2021/03/14 00:26:04;;;;;;;29.98;16.25;;;;;;;2.62;88.13;98887.75;3512194;28;20056;-54
2021/03/14 00:27:45;;;;;;;33.13;15.82;;;;;;;2.59;88.10;98885.06;3512456;28;20106;-54
2021/03/14 00:29:28;;;;;;;26.90;14.35;;;;;;;2.56;88.22;98873.06;3521443;28;20054;-54
2021/03/14 00:31:09;;;;;;;30.15;16.13;;;;;;;2.53;88.24;98879.78;3518712;28;20051;-55
2021/03/14 00:32:51;;;;;;;31.38;16.83;;;;;;;2.49;88.47;98879.66;3523791;28;20047;-53
2021/03/14 00:34:33;;;;;;;30.27;15.30;;;;;;;2.47;88.68;98876.19;3520312;28;20558;-52
2021/03/14 00:36:14;;;;;;;33.40;15.57;;;;;;;2.49;88.73;98883.91;3523190;28;20108;-54
2021/03/14 00:37:56;;;;;;;31.00;15.57;;;;;;;2.48;88.34;98880.50;3520637;28;20138;-51
2021/03/14 00:39:38;;;;;;;39.47;17.50;;;;;;;2.46;88.41;98881.25;3521523;28;20040;-54
2021/03/14 00:41:21;;;;;;;41.22;18.63;;;;;;;2.44;88.74;98883.75;3509595;28;20071;-53
2021/03/14 00:43:05;;;;;;;35.47;16.98;;;;;;;2.44;88.68;98883.75;3515493;28;20043;-53
2021/03/14 00:44:46;;;;;;;;;;;;;;;2.43;88.85;98886.25;3523562;28;20532;-53
2021/03/14 00:46:28;;;;;;;27.95;14.75;;;;;;;2.43;89.08;98876.03;3521836;28;19924;-54
2021/03/14 00:48:10;;;;;;;30.42;15.95;;;;;;;2.46;89.01;98886.38;3523454;28;20124;-51
2021/03/14 00:49:51;;;;;;;31.42;16.15;;;;;;;2.45;88.90;98875.28;3523937;28;20047;-55
2021/03/14 00:51:33;;;;;;;29.10;15.07;;;;;;;2.45;88.95;98880.41;3521836;28;20136;-55
2021/03/14 00:53:15;;;;;;;30.52;15.45;;;;;;;2.45;88.94;98877.84;3511804;28;20047;-54
2021/03/14 00:54:57;;;;;;;38.35;17.33;;;;;;;2.45;88.76;98875.28;3514227;28;20519;-53
2021/03/14 00:56:39;;;;;;;34.15;15.57;;;;;;;2.45;88.48;98884.66;3511589;28;20144;-54
2021/03/14 00:58:22;;;;;;;33.80;16.52;;;;;;;2.44;88.71;98877.78;3523029;28;20138;-55
2021/03/14 01:00:05;;;;;;;32.10;15.82;;;;;;;2.42;88.60;98880.28;3522725;28;20078;-52
2021/03/14 01:01:47;;;;;;;31.13;16.50;;;;;;;2.42;89.13;98885.41;3524402;28;20079;-51
2021/03/14 01:03:28;;;;;;;35.58;17.08;;;;;;;2.44;89.09;98878.63;3521825;28;20553;-53
2021/03/14 01:05:11;;;;;;;32.30;15.73;;;;;;;2.44;88.88;98876.06;3525945;28;20050;-55
2021/03/14 01:06:52;;;;;;;35.42;16.20;;;;;;;2.43;88.59;98881.16;3522219;28;20052;-53
2021/03/14 01:08:35;;;;;;;37.45;17.33;;;;;;;2.43;88.79;98876.03;3525101;28;20051;-54
2021/03/14 01:10:16;;;;;;;35.95;17.55;;;;;;;2.39;88.98;98875.06;3522760;28;20055;-54
2021/03/14 01:11:58;;;;;;;42.78;19.58;;;;;;;2.38;88.86;98875.91;3522417;28;20066;-54
2021/03/14 01:13:39;;;;;;;51.42;21.17;;;;;;;2.36;88.49;98874.09;3522602;28;20058;-51
2021/03/14 01:15:20;;;;;;;36.33;16.73;;;;;;;2.30;88.96;98867.94;3520732;28;20039;-54
2021/03/14 01:17:03;;;;;;;39.80;18.33;;;;;;;2.29;89.32;98878.16;3525609;28;20116;-53
2021/03/14 01:18:45;;;;;;;37.97;18.40;;;;;;;2.26;89.00;98870.38;3523037;28;20496;-54
2021/03/14 01:20:27;;;;;;;31.70;16.88;;;;;;;2.23;89.09;98872.81;3525072;28;20063;-54
2021/03/14 01:22:08;;;;;;;36.47;19.33;;;;;;;2.22;89.28;98871.94;3522591;28;20048;-54
2021/03/14 01:23:50;;;;;;;35.55;18.52;;;;;;;2.20;89.50;98867.59;3523845;28;20388;-54
2021/03/14 01:25:31;;;;;;;37.25;18.30;;;;;;;2.19;89.34;98868.41;3524439;28;20408;-55
2021/03/14 01:27:13;;;;;;;33.65;17.17;;;;;;;2.17;89.74;98876.03;3520883;28;20089;-52
2021/03/14 01:28:54;;;;;;;33.10;17.33;;;;;;;2.14;89.65;98860.56;3511569;28;20462;-55
2021/03/14 01:30:35;;;;;;;36.78;17.52;;;;;;;2.12;90.00;98857.97;3513515;28;20044;-54
2021/03/14 01:32:17;;;;;;;39.38;18.85;;;;;;;2.10;89.77;98854.47;3510799;28;20047;-54
2021/03/14 01:33:58;;;;;;;39.25;18.40;;;;;;;2.09;89.90;98862.09;3522007;28;20087;-53
2021/03/14 01:35:40;;;;;;;36.58;17.98;;;;;;;2.06;90.04;98851.75;3522361;28;20044;-54
2021/03/14 01:37:23;;;;;;;36.67;17.67;;;;;;;2.04;90.22;98850.84;3523646;28;20044;-55
2021/03/14 01:39:05;;;;;;;34.10;17.42;;;;;;;2.03;90.35;98855.09;3522038;28;20059;-54
2021/03/14 01:40:47;;;;;;;36.38;18.30;;;;;;;2.03;90.26;98854.25;3525631;28;20048;-55
2021/03/14 01:42:30;;;;;;;36.03;18.38;;;;;;;2.02;90.30;98858.47;3521700;28;20039;-51
2021/03/14 01:44:11;;;;;;;36.85;17.90;;;;;;;2.02;90.34;98850.78;3523867;28;20043;-54
2021/03/14 01:45:52;;;;;;;43.15;18.85;;;;;;;2.00;90.22;98849.88;3522276;28;20047;-53
2021/03/14 01:47:35;;;;;;;42.13;19.02;;;;;;;2.00;90.30;98849.00;3522029;28;20527;-54
2021/03/14 01:49:17;;;;;;;36.20;18.33;;;;;;;1.99;90.41;98852.38;3512145;28;20078;-51
2021/03/14 01:50:59;;;;;;;36.47;17.80;;;;;;;1.98;90.40;98838.72;3516051;28;20048;-55
2021/03/14 01:52:41;;;;;;;34.35;18.55;;;;;;;1.97;90.68;98843.78;3525405;28;20058;-54
2021/03/14 01:54:24;;;;;;;39.60;18.98;;;;;;;1.95;90.40;98843.72;3520376;28;20058;-54
2021/03/14 01:56:06;;;;;;;37.15;17.40;;;;;;;1.96;90.69;98849.72;3524708;28;20643;-54
2021/03/14 01:57:49;;;;;;;35.17;17.80;;;;;;;1.94;90.87;98844.56;3521322;28;20565;-55
2021/03/14 01:59:30;;;;;;;34.75;17.42;;;;;;;1.93;90.45;98838.56;3522176;28;20500;-55
2021/03/14 02:01:12;;;;;;;33.55;17.75;;;;;;;1.91;90.44;98847.84;3512143;28;20048;-54
2021/03/14 02:02:53;;;;;;;37.20;18.65;;;;;;;1.91;90.84;98852.13;3514829;28;20044;-53
2021/03/14 02:04:35;;;;;;;39.10;19.45;;;;;;;1.92;91.13;98847.06;3525236;28;20084;-53
2021/03/14 02:06:16;;;;;;;38.53;17.80;;;;;;;1.92;90.91;98848.75;3521199;28;20435;-53
2021/03/14 02:07:58;;;;;;;35.45;17.60;;;;;;;1.91;90.80;98852.13;3524627;28;20393;-53
2021/03/14 02:09:40;;;;;;;37.63;17.63;;;;;;;1.90;91.06;98860.59;3521340;28;20066;-53
2021/03/14 02:11:27;;;;;;;36.05;18.30;;;;;;;1.90;91.03;98858.03;3521424;28;20047;-54
2021/03/14 02:13:13;;;;;;;38.53;17.75;;;;;;;1.88;90.91;98862.22;3511158;28;20044;-54
2021/03/14 02:15:00;;;;;;;32.55;17.20;;;;;;;1.87;90.85;98878.41;3521928;28;20105;-54
2021/03/14 02:16:43;;;;;;;36.85;18.05;;;;;;;1.86;91.17;98876.66;3525106;28;20405;-53
2021/03/14 02:18:26;;;;;;;33.97;17.90;;;;;;;1.86;91.30;98872.41;3521914;28;20043;-51
2021/03/14 02:20:11;;;;;;;34.42;18.75;;;;;;;1.87;91.28;98865.63;3523803;28;20043;-54
2021/03/14 02:21:53;;;;;;;36.03;18.85;;;;;;;1.87;91.33;98861.38;3523643;28;20055;-55
2021/03/14 02:23:42;;;;;;;33.22;17.23;;;;;;;1.89;91.49;98861.44;3520729;28;20044;-54
2021/03/14 02:25:31;;;;;;;40.70;18.95;;;;;;;1.86;91.43;98859.63;3510969;28;20291;-53
2021/03/14 02:27:14;;;;;;;38.90;18.45;;;;;;;1.86;91.25;98859.63;3519306;28;20496;-54
2021/03/14 02:28:56;;;;;;;37.35;19.20;;;;;;;1.85;91.40;98860.44;3523858;28;20055;-54
2021/03/14 02:30:38;;;;;;;36.33;18.60;;;;;;;1.84;91.60;98860.41;3512176;28;20134;-54
2021/03/14 02:32:21;;;;;;;34.67;18.25;;;;;;;1.82;91.34;98862.91;3512891;28;20047;-55
2021/03/14 02:34:07;;;;;;;38.33;19.02;;;;;;;1.80;91.75;98853.44;3510870;28;20044;-55
2021/03/14 02:35:52;;;;;;;34.85;17.42;;;;;;;1.79;91.59;98861.91;3514433;28;20048;-55
2021/03/14 02:37:36;;;;;;;38.10;18.27;;;;;;;1.79;91.84;98857.66;3510440;28;20056;-52
2021/03/14 02:39:21;;;;;;;31.17;16.95;;;;;;;1.81;92.02;98862.84;3521465;28;20051;-54
2021/03/14 02:41:05;;;;;;;38.35;17.40;;;;;;;1.81;92.09;98860.28;3522421;28;20500;-50
2021/03/14 02:42:49;;;;;;;34.35;17.25;;;;;;;1.80;92.13;98863.66;3523803;28;20516;-54
2021/03/14 02:44:33;;;;;;;;;;;;;;;1.78;91.93;98861.06;3521615;28;20044;-53
2021/03/14 02:46:15;;;;;;;37.55;18.20;;;;;;;1.77;91.85;98866.09;3524974;28;19966;-54
2021/03/14 02:47:58;;;;;;;34.70;16.35;;;;;;;1.77;91.82;98853.31;3519677;28;20052;-55
2021/03/14 02:49:40;;;;;;;37.33;19.23;;;;;;;1.79;92.02;98869.59;3522342;28;20059;-52
2021/03/14 02:51:22;;;;;;;38.95;18.80;;;;;;;1.77;91.96;98863.56;3522053;28;20094;-54
2021/03/14 02:53:04;;;;;;;35.78;19.48;;;;;;;1.77;92.05;98872.09;3521742;28;20504;-54
2021/03/14 02:54:48;;;;;;;39.97;20.08;;;;;;;1.77;92.47;98866.97;3523917;28;20052;-54
2021/03/14 02:56:29;;;;;;;41.08;19.30;;;;;;;1.73;91.92;98868.56;3519417;28;20538;-54
2021/03/14 02:58:13;;;;;;;39.35;20.55;;;;;;;1.72;92.08;98874.50;3524665;28;20047;-54
2021/03/14 02:59:55;;;;;;;45.58;21.35;;;;;;;1.70;92.01;98873.53;3521336;28;20059;-53
2021/03/14 03:01:37;;;;;;;41.85;20.35;;;;;;;1.67;92.09;98881.13;3523417;28;20047;-54
2021/03/14 03:03:21;;;;;;;41.50;19.52;;;;;;;1.62;91.94;98872.41;3511223;28;20504;-55
2021/03/14 03:05:04;;;;;;;47.00;21.95;;;;;;;1.60;92.35;98876.59;3512743;28;20044;-55
2021/03/14 03:06:47;;;;;;;39.38;20.85;;;;;;;1.56;92.36;98873.06;3524668;28;20054;-53
2021/03/14 03:08:29;;;;;;;40.80;20.50;;;;;;;1.55;92.17;98868.75;3516004;28;20086;-52
2021/03/14 03:10:12;;;;;;;49.05;23.75;;;;;;;1.53;92.33;98874.63;3510502;28;20500;-52
2021/03/14 03:11:56;;;;;;;48.42;24.05;;;;;;;1.51;92.40;98877.16;3521379;28;20047;-54
2021/03/14 03:13:39;;;;;;;49.40;24.33;;;;;;;1.50;92.57;98877.09;3519775;28;20048;-55
2021/03/14 03:15:23;;;;;;;60.75;25.95;;;;;;;1.47;93.04;98872.72;3522322;28;20047;-53
2021/03/14 03:17:05;;;;;;;55.15;25.15;;;;;;;1.45;93.31;98874.34;3519366;28;20055;-54
2021/03/14 03:18:47;;;;;;;57.95;26.70;;;;;;;1.45;93.07;98870.94;3524555;28;20062;-54
2021/03/14 03:20:30;;;;;;;53.47;24.92;;;;;;;1.45;93.67;98878.59;3520832;28;20048;-54
2021/03/14 03:22:11;;;;;;;53.63;23.33;;;;;;;1.44;93.75;98875.19;3523795;28;20047;-55
2021/03/14 03:23:53;;;;;;;56.42;27.02;;;;;;;1.43;93.66;98886.19;3521438;28;20108;-51
2021/03/14 03:25:34;;;;;;;72.47;26.33;;;;;;;1.42;93.69;98883.59;3520598;28;20539;-54
2021/03/14 03:27:16;;;;;;;65.45;27.88;;;;;;;1.41;94.04;98886.94;3523023;28;20081;-52
2021/03/14 03:28:58;;;;;;;69.22;28.08;;;;;;;1.41;94.20;98890.38;3518938;28;20043;-52
2021/03/14 03:30:41;;;;;;;62.88;27.55;;;;;;;1.40;94.11;98895.44;3510136;28;20048;-54
2021/03/14 03:32:22;;;;;;;75.75;28.80;;;;;;;1.41;94.26;98895.50;3519050;28;20054;-52
2021/03/14 03:34:04;;;;;;;72.78;30.30;;;;;;;1.42;94.29;98892.13;3522114;28;20420;-55
2021/03/14 03:35:45;;;;;;;74.38;29.83;;;;;;;1.43;94.66;98882.78;3521253;28;20052;-54
2021/03/14 03:37:27;;;;;;;74.82;28.70;;;;;;;1.41;94.42;98872.50;3521829;28;20051;-52
2021/03/14 03:39:10;;;;;;;72.82;26.95;;;;;;;1.43;94.61;98877.69;3522848;28;20055;-54
2021/03/14 03:40:54;;;;;;;71.15;27.25;;;;;;;1.43;94.54;98872.56;3520661;28;20055;-54
2021/03/14 03:42:45;;;;;;;76.07;32.23;;;;;;;1.42;94.49;98874.22;3524291;28;20051;-54
2021/03/14 03:44:33;;;;;;;76.55;30.73;;;;;;;1.42;94.73;98866.56;3520944;28;20055;-55
2021/03/14 03:46:15;;;;;;;76.68;29.73;;;;;;;1.42;94.66;98852.91;3520742;28;20101;-51
2021/03/14 03:47:58;;;;;;;85.82;32.95;;;;;;;1.42;94.43;98889.56;3522288;28;20048;-51
2021/03/14 03:49:59;;;;;;;83.97;31.33;;;;;;;1.41;94.78;98858.84;3516021;28;20052;-51
2021/03/14 03:51:40;;;;;;;76.57;29.87;;;;;;;1.41;94.56;98863.94;3516907;28;20051;-52
2021/03/14 03:53:22;;;;;;;73.35;29.85;;;;;;;1.40;94.59;98855.41;3520462;28;20047;-54
2021/03/14 03:55:08;;;;;;;65.78;26.48;;;;;;;1.39;94.84;98848.59;3519977;28;20047;-54
2021/03/14 03:56:53;;;;;;;74.65;29.58;;;;;;;1.41;94.83;98853.72;3524053;28;20323;-54
2021/03/14 03:58:35;;;;;;;87.72;31.20;;;;;;;1.40;94.46;98867.34;3516890;28;20044;-52
2021/03/14 04:00:19;;;;;;;77.00;28.95;;;;;;;1.41;94.75;98853.72;3509798;28;20056;-54
2021/03/14 04:02:01;;;;;;;83.05;31.70;;;;;;;1.41;94.65;98858.84;3520036;28;20086;-51
2021/03/14 04:03:45;;;;;;;91.15;31.75;;;;;;;1.42;95.05;98852.91;3521329;28;20040;-54
2021/03/14 04:05:27;;;;;;;80.25;27.75;;;;;;;1.41;94.91;98854.63;3522340;28;20528;-52
2021/03/14 04:07:11;;;;;;;86.45;32.17;;;;;;;1.41;94.93;98853.72;3519578;28;20058;-54
2021/03/14 04:08:52;;;;;;;78.28;29.67;;;;;;;1.40;94.94;98847.75;3509919;28;20128;-53
2021/03/14 04:10:35;;;;;;;76.78;29.98;;;;;;;1.40;94.80;98847.75;3516504;28;20063;-51
2021/03/14 04:12:17;;;;;;;87.47;30.63;;;;;;;1.38;94.91;98837.47;3522236;28;20052;-53
2021/03/14 04:13:59;;;;;;;82.50;31.77;;;;;;;1.38;94.90;98840.03;3519857;28;20052;-54
2021/03/14 04:15:41;;;;;;;87.07;32.65;;;;;;;1.37;94.97;98845.97;3521601;28;20054;-55
2021/03/14 04:17:24;;;;;;;87.57;31.48;;;;;;;1.37;94.82;98845.97;3522276;28;20051;-54
2021/03/14 04:19:10;;;;;;;86.25;32.42;;;;;;;1.37;94.95;98845.06;3519960;28;20523;-54
2021/03/14 04:20:52;;;;;;;89.88;30.02;;;;;;;1.37;95.06;98839.97;3524524;28;20444;-51
2021/03/14 04:22:34;;;;;;;75.07;27.55;;;;;;;1.36;94.94;98835.69;3522729;28;20043;-55
2021/03/14 04:24:17;;;;;;;81.68;27.90;;;;;;;1.37;94.97;98842.53;3524343;28;20058;-55
2021/03/14 04:25:59;;;;;;;85.47;31.35;;;;;;;1.37;95.04;98829.75;3523275;28;20051;-55
2021/03/14 04:27:45;;;;;;;83.20;31.23;;;;;;;1.37;95.27;98830.63;3522511;28;20044;-54
2021/03/14 04:29:30;;;;;;;76.95;27.55;;;;;;;1.37;95.04;98834.84;3511960;28;20116;-54
2021/03/14 04:31:13;;;;;;;92.32;32.10;;;;;;;1.35;94.94;98823.72;3514198;28;20044;-55
2021/03/14 04:32:56;;;;;;;84.70;31.07;;;;;;;1.34;95.43;98830.50;3512145;28;20109;-53
2021/03/14 04:34:38;;;;;;;75.78;28.45;;;;;;;1.35;95.45;98826.28;3514833;28;20359;-54
2021/03/14 04:36:21;;;;;;;79.88;32.20;;;;;;;1.35;95.51;98828.81;3513132;28;20052;-54
2021/03/14 04:38:05;;;;;;;80.20;28.30;;;;;;;1.35;95.19;98831.38;3523940;28;20051;-55
2021/03/14 04:39:47;;;;;;;77.90;29.20;;;;;;;1.34;95.35;98830.50;3522668;28;20079;-55
2021/03/14 04:41:31;;;;;;;86.97;29.92;;;;;;;1.34;95.48;98824.53;3525854;28;20447;-55
2021/03/14 04:43:13;;;;;;;84.88;32.60;;;;;;;1.34;95.21;98833.06;3522644;28;20043;-53
2021/03/14 04:44:55;;;;;;;80.32;28.60;;;;;;;1.34;95.49;98838.19;3525501;28;20079;-55
2021/03/14 04:46:38;;;;;;;82.50;29.13;;;;;;;1.35;95.57;98842.50;3513618;28;20070;-55
2021/03/14 04:48:23;;;;;;;71.18;26.90;;;;;;;1.36;95.19;98836.53;3519367;28;20100;-53
2021/03/14 04:50:05;;;;;;;79.45;28.15;;;;;;;1.36;95.54;98839.09;3524849;28;20054;-53
2021/03/14 04:51:48;;;;;;;74.88;27.45;;;;;;;1.37;95.62;98834.84;3522369;28;20091;-55
2021/03/14 04:53:30;;;;;;;78.40;27.97;;;;;;;1.36;95.21;98849.31;3525911;28;20055;-54
2021/03/14 04:55:14;;;;;;;78.70;27.90;;;;;;;1.36;95.25;98861.25;3521007;28;20280;-54
2021/03/14 04:56:57;;;;;;;79.10;28.70;;;;;;;1.34;95.52;98853.50;3523841;28;20050;-53
2021/03/14 04:58:39;;;;;;;73.82;27.63;;;;;;;1.34;95.34;98855.22;3513553;28;20051;-55
2021/03/14 05:00:23;;;;;;;67.88;26.90;;;;;;;1.32;95.21;98856.84;3513924;28;20040;-53
2021/03/14 05:02:06;;;;;;;74.55;27.60;;;;;;;1.31;95.28;98849.97;3525579;28;20104;-55
2021/03/14 05:03:51;;;;;;;74.70;28.20;;;;;;;1.28;95.32;98848.19;3522658;28;20051;-54
2021/03/14 05:05:33;;;;;;;69.38;26.42;;;;;;;1.27;95.41;98853.25;3525488;28;20055;-54
2021/03/14 05:07:15;;;;;;;72.05;27.40;;;;;;;1.27;95.58;98846.44;3521516;28;20092;-53
2021/03/14 05:09:00;;;;;;;69.43;24.73;;;;;;;1.24;95.20;98843.75;3524734;28;20079;-54
2021/03/14 05:10:42;;;;;;;61.63;24.02;;;;;;;1.24;95.46;98850.56;3523702;28;20122;-53
2021/03/14 05:12:24;;;;;;;68.05;25.98;;;;;;;1.22;95.27;98849.66;3522008;28;20055;-51
2021/03/14 05:14:05;;;;;;;66.88;26.88;;;;;;;1.22;95.51;98872.63;3524152;28;20100;-55
2021/03/14 05:15:50;;;;;;;63.33;25.90;;;;;;;1.21;95.42;98860.66;3521050;28;20059;-53
2021/03/14 05:17:33;;;;;;;67.90;26.10;;;;;;;1.20;95.59;98859.78;3525091;28;20428;-54
2021/03/14 05:19:16;;;;;;;59.92;27.33;;;;;;;1.19;95.46;98855.50;3513335;28;20063;-52
2021/03/14 05:21:14;;;;;;;50.60;21.23;;;;;;;1.19;95.28;98858.03;3513516;28;20063;-54
2021/03/14 05:22:56;;;;;;;49.60;22.65;;;;;;;1.20;95.48;98864.91;3511727;28;20059;-53
2021/03/14 05:24:40;;;;;;;52.28;23.83;;;;;;;1.20;95.53;98869.16;3518797;28;20044;-54
2021/03/14 05:26:21;;;;;;;49.08;22.60;;;;;;;1.21;95.46;98869.19;3524876;28;20223;-54
2021/03/14 05:28:04;;;;;;;52.55;22.38;;;;;;;1.22;95.34;98872.63;3513985;28;20048;-53
2021/03/14 05:29:46;;;;;;;44.40;20.65;;;;;;;1.22;95.41;98865.81;3513404;28;20079;-54
2021/03/14 05:31:30;;;;;;;52.92;23.50;;;;;;;1.22;95.33;98865.81;3512358;28;20055;-53
2021/03/14 05:33:12;;;;;;;47.80;20.85;;;;;;;1.23;95.24;98865.03;3515994;28;20043;-54
2021/03/14 05:34:56;;;;;;;45.95;19.63;;;;;;;1.25;95.29;98870.16;3525745;28;20058;-54
2021/03/14 05:36:38;;;;;;;45.92;19.60;;;;;;;1.26;95.14;98865.13;3522221;28;20443;-54
2021/03/14 05:38:19;;;;;;;41.72;19.70;;;;;;;1.30;95.29;98864.44;3523868;28;20113;-54
2021/03/14 05:40:01;;;;;;;43.50;18.25;;;;;;;1.31;95.34;98866.16;3522710;28;20050;-53
2021/03/14 05:41:43;;;;;;;45.60;20.58;;;;;;;1.32;95.16;98867.06;3523535;28;20104;-51
2021/03/14 05:43:24;;;;;;;44.25;20.15;;;;;;;1.33;95.39;98871.34;3522845;28;20503;-54
2021/03/14 05:45:08;;;;;;;40.63;19.10;;;;;;;1.32;95.30;98875.59;3521604;28;20052;-51
2021/03/14 05:46:49;;;;;;;;;;;;;;;1.35;95.12;98879.94;3526195;28;20052;-55
2021/03/14 05:48:32;;;;;;;41.22;17.88;;;;;;;1.36;95.09;98866.34;3521689;28;19949;-53
2021/03/14 05:50:16;;;;;;;42.13;18.35;;;;;;;1.38;94.88;98864.72;3523226;28;20082;-52
2021/03/14 05:51:59;;;;;;;43.40;19.85;;;;;;;1.40;94.99;98872.44;3522446;28;20051;-53
2021/03/14 05:53:42;;;;;;;40.55;18.05;;;;;;;1.41;95.02;98863.94;3520744;28;20043;-52
2021/03/14 05:55:25;;;;;;;43.10;20.05;;;;;;;1.41;94.87;98867.41;3511250;28;20056;-52
2021/03/14 05:57:08;;;;;;;36.30;18.40;;;;;;;1.43;95.12;98870.88;3516806;28;20055;-54
2021/03/14 05:58:51;;;;;;;41.65;18.33;;;;;;;1.44;95.10;98864.97;3525387;28;20305;-53
2021/03/14 06:00:32;;;;;;;40.67;19.35;;;;;;;1.46;95.02;98852.22;3515180;28;20046;-51
2021/03/14 06:02:17;;;;;;;41.53;19.38;;;;;;;1.48;94.84;98859.13;3512973;28;20076;-54
2021/03/14 06:03:59;;;;;;;41.67;19.40;;;;;;;1.49;94.88;98850.63;3512238;28;20056;-52
2021/03/14 06:05:41;;;;;;;38.80;18.05;;;;;;;1.51;94.44;98851.59;3514632;28;20051;-52
2021/03/14 06:07:41;;;;;;;41.13;18.92;;;;;;;1.53;94.87;98849.94;3524678;28;20074;-53
2021/03/14 06:09:23;;;;;;;36.97;17.77;;;;;;;1.59;94.79;98851.00;3521304;28;20543;-51
2021/03/14 06:11:05;;;;;;;40.38;18.92;;;;;;;1.62;94.56;98854.53;3524485;28;20051;-52
2021/03/14 06:12:46;;;;;;;39.15;18.90;;;;;;;1.63;94.26;98840.91;3522528;28;20445;-54
2021/03/14 06:14:28;;;;;;;37.00;18.02;;;;;;;1.64;94.07;98852.88;3521283;28;20058;-54
2021/03/14 06:16:09;;;;;;;41.13;19.35;;;;;;;1.63;94.15;98851.13;3512016;28;20052;-52
2021/03/14 06:17:50;;;;;;;36.22;18.10;;;;;;;1.65;94.20;98841.81;3516939;28;20052;-52
2021/03/14 06:19:33;;;;;;;38.70;18.27;;;;;;;1.66;94.07;98852.94;3524942;28;20080;-53
2021/03/14 06:21:26;;;;;;;37.47;16.20;;;;;;;1.68;93.89;98841.09;3521533;28;20058;-55
2021/03/14 06:23:12;;;;;;;37.88;17.27;;;;;;;1.70;93.95;98849.69;3524059;28;20039;-54
2021/03/14 06:24:54;;;;;;;35.03;16.52;;;;;;;1.71;93.89;98839.50;3523563;28;20052;-52
2021/03/14 06:26:38;;;;;;;35.47;17.08;;;;;;;1.74;93.68;98838.72;3519842;28;20047;-54
2021/03/14 06:28:30;;;;;;;;;;;;;;;1.74;93.54;98844.75;3525249;28;20416;-54
2021/03/14 06:30:16;;;;;;;34.50;15.90;;;;;;;1.77;93.57;98840.53;3520168;28;20224;-53
2021/03/14 06:32:00;;;;;;;36.33;16.05;;;;;;;1.79;93.62;98844.03;3523918;28;20116;-52
2021/03/14 06:33:42;;;;;;;;;;;;;;;1.80;93.38;98846.63;3512283;28;20051;-53
2021/03/14 06:35:24;;;;;;;34.88;16.30;;;;;;;1.83;93.03;98853.53;3511721;28;20286;-55
2021/03/14 06:37:11;;;;;;;32.15;15.63;;;;;;;1.87;93.22;98842.59;3525026;28;20056;-53
2021/03/14 06:38:52;;;;;;;29.88;14.98;;;;;;;1.88;92.96;98845.22;3520128;28;20070;-54
2021/03/14 06:40:34;;;;;;;32.13;15.15;;;;;;;1.90;92.72;98851.25;3523808;28;20047;-52
2021/03/14 06:42:30;;;;;;;29.38;15.27;;;;;;;1.92;92.68;98851.31;3521514;28;20652;-51
2021/03/14 06:44:21;;;;;;;31.05;14.80;;;;;;;1.96;92.88;98849.72;3521124;28;20128;-51
2021/03/14 06:46:17;;;;;;;31.17;14.85;;;;;;;1.98;92.76;98848.09;3510685;28;20048;-53
2021/03/14 06:47:59;;;;;;;31.00;15.63;;;;;;;2.03;92.66;98844.00;3514091;28;20047;-52
2021/03/14 06:49:41;;;;;;;26.58;14.85;;;;;;;2.06;92.53;98862.00;3510914;28;20155;-51
2021/03/14 06:51:32;;;;;;;31.67;15.85;;;;;;;2.09;92.14;98849.31;3520898;28;20055;-53
2021/03/14 06:53:16;;;;;;;30.25;14.88;;;;;;;2.10;91.93;98857.03;3519665;28;20496;-52
2021/03/14 06:54:58;;;;;;;31.88;14.50;;;;;;;2.12;91.95;98857.97;3524756;28;20063;-51
2021/03/14 06:56:39;;;;;;;28.05;14.35;;;;;;;2.13;91.87;98857.16;3519377;28;20051;-54
2021/03/14 06:58:22;;;;;;;26.27;13.40;;;;;;;2.20;91.90;98853.13;3523695;28;20055;-53
2021/03/14 07:00:05;;;;;;;26.83;13.45;;;;;;;2.20;91.56;98839.44;3521139;28;20055;-54
2021/03/14 07:01:56;;;;;;;31.30;15.00;;;;;;;2.25;91.22;98843.03;3522650;28;20530;-53
2021/03/14 07:03:41;;;;;;;30.05;14.30;;;;;;;2.28;91.28;98854.22;3510449;28;20048;-54
2021/03/14 07:05:23;;;;;;;33.72;14.52;;;;;;;2.33;91.35;98859.50;3516986;28;20054;-54
2021/03/14 07:07:11;;;;;;;52.53;18.60;;;;;;;2.38;91.21;98851.97;3524436;28;20055;-54
2021/03/14 07:08:54;;;;;;;28.63;14.10;;;;;;;2.41;90.83;98864.88;3520172;28;20079;-55
2021/03/14 07:10:37;;;;;;;24.90;13.13;;;;;;;2.38;90.08;98875.91;3523339;28;20043;-54
2021/03/14 07:12:21;;;;;;;25.70;12.45;;;;;;;2.39;90.58;98874.19;3522414;28;20051;-54
2021/03/14 07:14:04;;;;;;;24.35;12.73;;;;;;;2.39;90.01;98892.13;3519446;28;20470;-54
2021/03/14 07:15:49;;;;;;;22.38;11.73;;;;;;;2.33;90.13;98878.28;3524467;28;20043;-54
2021/03/14 07:17:33;;;;;;;20.77;11.30;;;;;;;2.32;90.08;98901.25;3519742;28;20096;-53
2021/03/14 07:19:15;;;;;;;;;;;;;;;2.26;90.17;98901.06;3524228;28;20059;-53
2021/03/14 07:20:57;;;;;;;19.38;9.65;;;;;;;2.22;90.43;98891.53;3521599;28;19923;-51
2021/03/14 07:22:55;;;;;;;24.33;12.32;;;;;;;2.16;90.23;98899.00;3522159;28;20054;-55
2021/03/14 07:24:38;;;;;;;21.85;11.93;;;;;;;2.14;90.67;98901.50;3524256;28;20055;-51
2021/03/14 07:26:38;;;;;;;24.57;11.03;;;;;;;2.16;91.16;98899.88;3519163;28;20926;-54
2021/03/14 07:28:19;;;;;;;21.73;11.18;;;;;;;2.18;91.13;98889.69;3521827;28;20537;-54
2021/03/14 07:30:01;;;;;;;22.70;11.27;;;;;;;2.22;91.04;98894.97;3521689;28;20086;-52
2021/03/14 07:31:43;;;;;;;20.30;10.93;;;;;;;2.24;90.90;98893.34;3519527;28;20043;-51
2021/03/14 07:33:25;;;;;;;21.00;11.02;;;;;;;2.25;90.76;98882.31;3510058;28;20420;-54
2021/03/14 07:35:07;;;;;;;22.85;11.95;;;;;;;2.28;90.65;98881.50;3512381;28;20066;-54
2021/03/14 07:36:49;;;;;;;21.67;11.15;;;;;;;2.32;90.52;98876.56;3518749;28;20531;-51
2021/03/14 07:38:31;;;;;;;19.10;10.32;;;;;;;2.37;90.48;98892.06;3519246;28;20074;-53
2021/03/14 07:40:14;;;;;;;23.73;11.60;;;;;;;2.41;90.57;98877.66;3521653;28;20044;-54
2021/03/14 07:41:57;;;;;;;21.08;11.20;;;;;;;2.41;89.69;98883.69;3510814;28;20048;-52
2021/03/14 07:43:39;;;;;;;21.80;10.82;;;;;;;2.41;89.54;98886.25;3512332;28;20071;-53
2021/03/14 07:45:20;;;;;;;20.95;11.43;;;;;;;2.44;89.95;98878.63;3523953;28;20630;-53
2021/03/14 07:47:02;;;;;;;18.15;9.95;;;;;;;2.49;89.75;98871.97;3515586;28;20048;-53
2021/03/14 07:48:44;;;;;;;21.90;11.25;;;;;;;2.54;89.69;98876.41;3509317;28;20056;-54
2021/03/14 07:50:28;;;;;;;19.85;11.30;;;;;;;2.56;89.43;98875.63;3519920;28;20055;-55
2021/03/14 07:52:18;;;;;;;20.15;10.00;;;;;;;2.62;89.48;98872.38;3522117;28;20055;-51
2021/03/14 07:54:03;;;;;;;21.67;10.60;;;;;;;2.63;88.65;98875.00;3522288;28;20044;-54
2021/03/14 07:55:52;;;;;;;23.40;10.80;;;;;;;2.63;88.97;98881.81;3519040;28;20059;-53
2021/03/14 07:57:33;;;;;;;18.92;10.88;;;;;;;2.67;89.03;98868.28;3524027;28;20048;-52
2021/03/14 07:59:27;;;;;;;20.55;10.27;;;;;;;2.74;88.68;98874.47;3520303;28;20522;-52
2021/03/14 08:01:22;;;;;;;24.50;11.63;;;;;;;2.80;88.29;98877.22;3521754;28;20058;-54